sensor_id;sensor_type;location;lat;lon;timestamp;P1;durP1;ratioP1;P2;durP2;ratioP2
47894;SDS011;33653;52.302;8.134;2022-10-31T07:33:54;8.80;;;6.65;;
47894;SDS011;33653;52.302;8.134;2022-10-31T07:36:29;9.98;;;7.35;;
47894;SDS011;33653;52.302;8.134;2022-10-31T07:39:02;9.80;;;7.18;;
47894;SDS011;33653;52.302;8.134;2022-10-31T07:41:32;8.75;;;6.07;;
47894;SDS011;33653;52.302;8.134;2022-10-31T07:44:00;8.93;;;6.82;;
47894;SDS011;33653;52.302;8.134;2022-10-31T07:49:42;8.48;;;6.32;;
47894;SDS011;33653;52.302;8.134;2022-10-31T07:52:39;11.68;;;7.32;;
47894;SDS011;33653;52.302;8.134;2022-10-31T07:55:45;11.20;;;7.35;;
47894;SDS011;33653;52.302;8.134;2022-10-31T07:58:15;11.70;;;7.75;;
47894;SDS011;33653;52.302;8.134;2022-10-31T08:00:45;8.63;;;6.72;;
47894;SDS011;33653;52.302;8.134;2022-10-31T08:03:18;9.02;;;6.20;;
47894;SDS011;33653;52.302;8.134;2022-10-31T08:06:06;9.38;;;7.03;;
47894;SDS011;33653;52.302;8.134;2022-10-31T08:08:55;11.50;;;7.60;;
47894;SDS011;33653;52.302;8.134;2022-10-31T08:11:25;9.80;;;6.53;;
47894;SDS011;33653;52.302;8.134;2022-10-31T08:13:53;12.18;;;7.20;;
47894;SDS011;33653;52.302;8.134;2022-10-31T08:16:21;76.57;;;36.28;;
47894;SDS011;33653;52.302;8.134;2022-10-31T08:19:00;43.65;;;20.90;;
47894;SDS011;33653;52.302;8.134;2022-10-31T08:21:29;36.65;;;19.25;;
47894;SDS011;33653;52.302;8.134;2022-10-31T08:24:02;26.45;;;13.77;;
47894;SDS011;33653;52.302;8.134;2022-10-31T08:26:31;25.23;;;14.20;;
47894;SDS011;33653;52.302;8.134;2022-10-31T08:31:35;17.08;;;10.43;;
47894;SDS011;33653;52.302;8.134;2022-10-31T08:34:27;16.33;;;9.57;;
47894;SDS011;33653;52.302;8.134;2022-10-31T08:37:19;12.15;;;7.97;;
47894;SDS011;33653;52.302;8.134;2022-10-31T08:39:53;13.48;;;8.27;;
47894;SDS011;33653;52.302;8.134;2022-10-31T08:42:23;14.52;;;8.73;;
47894;SDS011;33653;52.302;8.134;2022-10-31T08:44:56;19.10;;;10.00;;
47894;SDS011;33653;52.302;8.134;2022-10-31T08:47:26;12.35;;;8.85;;
47894;SDS011;33653;52.302;8.134;2022-10-31T08:49:55;15.23;;;9.85;;
47894;SDS011;33653;52.302;8.134;2022-10-31T08:55:34;17.77;;;11.10;;
47894;SDS011;33653;52.302;8.134;2022-10-31T08:58:08;23.17;;;11.05;;
47894;SDS011;33653;52.302;8.134;2022-10-31T09:03:42;17.45;;;10.18;;
47894;SDS011;33653;52.302;8.134;2022-10-31T09:06:12;13.93;;;9.02;;
47894;SDS011;33653;52.302;8.134;2022-10-31T09:11:17;17.25;;;10.10;;
47894;SDS011;33653;52.302;8.134;2022-10-31T09:14:10;21.35;;;12.52;;
47894;SDS011;33653;52.302;8.134;2022-10-31T09:16:42;24.20;;;12.43;;
47894;SDS011;33653;52.302;8.134;2022-10-31T09:19:22;23.98;;;12.45;;
47894;SDS011;33653;52.302;8.134;2022-10-31T09:24:44;23.70;;;12.65;;
47894;SDS011;33653;52.302;8.134;2022-10-31T09:27:13;23.50;;;12.63;;
47894;SDS011;33653;52.302;8.134;2022-10-31T09:32:18;21.20;;;12.52;;
47894;SDS011;33653;52.302;8.134;2022-10-31T09:34:48;21.40;;;12.73;;
47894;SDS011;33653;52.302;8.134;2022-10-31T09:37:20;24.45;;;13.25;;
47894;SDS011;33653;52.302;8.134;2022-10-31T09:42:44;25.75;;;11.88;;
47894;SDS011;33653;52.302;8.134;2022-10-31T09:58:15;20.17;;;10.82;;
47894;SDS011;33653;52.302;8.134;2022-10-31T10:00:46;24.65;;;12.35;;
47894;SDS011;33653;52.302;8.134;2022-10-31T10:06:39;18.15;;;10.23;;
47894;SDS011;33653;52.302;8.134;2022-10-31T10:26:20;19.60;;;9.60;;
47894;SDS011;33653;52.302;8.134;2022-10-31T10:28:57;15.55;;;10.30;;
47894;SDS011;33653;52.302;8.134;2022-10-31T10:31:40;16.83;;;9.50;;
47894;SDS011;33653;52.302;8.134;2022-10-31T10:34:24;23.35;;;9.65;;
47894;SDS011;33653;52.302;8.134;2022-10-31T10:40:01;20.77;;;9.68;;
47894;SDS011;33653;52.302;8.134;2022-10-31T10:43:31;16.20;;;8.75;;
47894;SDS011;33653;52.302;8.134;2022-10-31T10:55:15;18.63;;;8.63;;
47894;SDS011;33653;52.302;8.134;2022-10-31T10:58:02;16.42;;;8.27;;
47894;SDS011;33653;52.302;8.134;2022-10-31T11:00:40;15.85;;;8.50;;
47894;SDS011;33653;52.302;8.134;2022-10-31T11:03:14;20.30;;;9.43;;
47894;SDS011;33653;52.302;8.134;2022-10-31T11:05:55;17.30;;;8.65;;
47894;SDS011;33653;52.302;8.134;2022-10-31T11:08:31;13.07;;;8.60;;
47894;SDS011;33653;52.302;8.134;2022-10-31T11:11:04;18.08;;;9.02;;
47894;SDS011;33653;52.302;8.134;2022-10-31T11:13:39;22.48;;;10.95;;
47894;SDS011;33653;52.302;8.134;2022-10-31T11:16:14;32.22;;;20.45;;
47894;SDS011;33653;52.302;8.134;2022-10-31T11:18:54;72.72;;;40.30;;
47894;SDS011;33653;52.302;8.134;2022-10-31T11:21:36;16.58;;;10.27;;
47894;SDS011;33653;52.302;8.134;2022-10-31T11:24:16;19.40;;;9.38;;
47894;SDS011;33653;52.302;8.134;2022-10-31T11:29:42;15.25;;;8.18;;
47894;SDS011;33653;52.302;8.134;2022-10-31T11:32:21;12.10;;;8.07;;
47894;SDS011;33653;52.302;8.134;2022-10-31T11:34:51;17.40;;;10.85;;
47894;SDS011;33653;52.302;8.134;2022-10-31T11:37:25;14.82;;;9.40;;
47894;SDS011;33653;52.302;8.134;2022-10-31T11:39:59;12.95;;;7.72;;
47894;SDS011;33653;52.302;8.134;2022-10-31T11:42:38;13.52;;;7.38;;
47894;SDS011;33653;52.302;8.134;2022-10-31T11:45:15;17.08;;;7.57;;
47894;SDS011;33653;52.302;8.134;2022-10-31T11:48:14;11.88;;;6.90;;
47894;SDS011;33653;52.302;8.134;2022-10-31T11:53:28;11.05;;;6.25;;
47894;SDS011;33653;52.302;8.134;2022-10-31T11:56:12;12.07;;;6.05;;
47894;SDS011;33653;52.302;8.134;2022-10-31T11:58:41;10.40;;;5.75;;
47894;SDS011;33653;52.302;8.134;2022-10-31T12:01:26;15.80;;;6.03;;
47894;SDS011;33653;52.302;8.134;2022-10-31T12:06:44;8.20;;;5.03;;
47894;SDS011;33653;52.302;8.134;2022-10-31T12:09:26;9.02;;;4.82;;
47894;SDS011;33653;52.302;8.134;2022-10-31T12:14:48;9.10;;;3.97;;
47894;SDS011;33653;52.302;8.134;2022-10-31T12:26:42;6.50;;;3.08;;
47894;SDS011;33653;52.302;8.134;2022-10-31T12:30:11;4.90;;;2.47;;
47894;SDS011;33653;52.302;8.134;2022-10-31T12:43:01;8.43;;;3.65;;
47894;SDS011;33653;52.302;8.134;2022-10-31T12:45:36;5.38;;;2.50;;
47894;SDS011;33653;52.302;8.134;2022-10-31T12:57:56;6.80;;;3.20;;
47894;SDS011;33653;52.302;8.134;2022-10-31T13:00:31;6.07;;;3.58;;
47894;SDS011;33653;52.302;8.134;2022-10-31T13:05:53;8.48;;;4.72;;
47894;SDS011;33653;52.302;8.134;2022-10-31T13:08:33;12.48;;;5.35;;
47894;SDS011;33653;52.302;8.134;2022-10-31T13:14:49;8.68;;;5.03;;
47894;SDS011;33653;52.302;8.134;2022-10-31T13:17:34;9.82;;;4.72;;
47894;SDS011;33653;52.302;8.134;2022-10-31T13:22:44;9.95;;;4.63;;
47894;SDS011;33653;52.302;8.134;2022-10-31T13:25:20;9.65;;;3.90;;
47894;SDS011;33653;52.302;8.134;2022-10-31T13:31:50;6.18;;;4.22;;
47894;SDS011;33653;52.302;8.134;2022-10-31T13:34:25;13.45;;;5.43;;
47894;SDS011;33653;52.302;8.134;2022-10-31T13:46:37;10.00;;;4.35;;
47894;SDS011;33653;52.302;8.134;2022-10-31T13:51:52;8.65;;;4.43;;
47894;SDS011;33653;52.302;8.134;2022-10-31T13:54:45;7.07;;;4.55;;
47894;SDS011;33653;52.302;8.134;2022-10-31T14:02:47;11.60;;;4.13;;
47894;SDS011;33653;52.302;8.134;2022-10-31T14:05:25;8.95;;;4.32;;
47894;SDS011;33653;52.302;8.134;2022-10-31T14:07:58;11.40;;;4.90;;
47894;SDS011;33653;52.302;8.134;2022-10-31T14:14:20;10.52;;;5.03;;
47894;SDS011;33653;52.302;8.134;2022-10-31T14:16:57;10.02;;;5.22;;
47894;SDS011;33653;52.302;8.134;2022-10-31T14:19:25;14.07;;;5.45;;
47894;SDS011;33653;52.302;8.134;2022-10-31T14:24:48;10.50;;;6.03;;
47894;SDS011;33653;52.302;8.134;2022-10-31T14:30:14;8.38;;;5.10;;
47894;SDS011;33653;52.302;8.134;2022-10-31T14:32:43;12.93;;;5.78;;
47894;SDS011;33653;52.302;8.134;2022-10-31T14:47:16;11.95;;;5.88;;
47894;SDS011;33653;52.302;8.134;2022-10-31T14:53:00;15.73;;;6.45;;
47894;SDS011;33653;52.302;8.134;2022-10-31T14:55:32;11.85;;;5.25;;
47894;SDS011;33653;52.302;8.134;2022-10-31T15:01:57;11.85;;;6.20;;
47894;SDS011;33653;52.302;8.134;2022-10-31T15:10:28;11.18;;;5.63;;
47894;SDS011;33653;52.302;8.134;2022-10-31T15:13:13;12.45;;;5.35;;
47894;SDS011;33653;52.302;8.134;2022-10-31T15:15:49;13.40;;;6.07;;
47894;SDS011;33653;52.302;8.134;2022-10-31T15:18:32;14.60;;;4.97;;
47894;SDS011;33653;52.302;8.134;2022-10-31T15:21:00;9.18;;;5.38;;
47894;SDS011;33653;52.302;8.134;2022-10-31T15:23:32;13.13;;;5.47;;
47894;SDS011;33653;52.302;8.134;2022-10-31T15:26:00;14.07;;;5.18;;
47894;SDS011;33653;52.302;8.134;2022-10-31T15:28:31;9.18;;;4.95;;
47894;SDS011;33653;52.302;8.134;2022-10-31T15:31:20;9.38;;;5.40;;
47894;SDS011;33653;52.302;8.134;2022-10-31T15:33:54;12.27;;;4.88;;
47894;SDS011;33653;52.302;8.134;2022-10-31T15:36:39;15.73;;;5.28;;
47894;SDS011;33653;52.302;8.134;2022-10-31T15:46:06;9.48;;;5.50;;
47894;SDS011;33653;52.302;8.134;2022-10-31T15:48:35;13.20;;;5.05;;
47894;SDS011;33653;52.302;8.134;2022-10-31T15:51:03;10.32;;;4.80;;
47894;SDS011;33653;52.302;8.134;2022-10-31T15:53:35;13.85;;;5.38;;
47894;SDS011;33653;52.302;8.134;2022-10-31T15:59:02;9.23;;;5.30;;
47894;SDS011;33653;52.302;8.134;2022-10-31T16:04:49;10.43;;;4.38;;
47894;SDS011;33653;52.302;8.134;2022-10-31T16:07:22;7.13;;;4.38;;
47894;SDS011;33653;52.302;8.134;2022-10-31T16:09:57;6.43;;;4.57;;
47894;SDS011;33653;52.302;8.134;2022-10-31T16:12:33;11.75;;;5.20;;
47894;SDS011;33653;52.302;8.134;2022-10-31T16:15:03;11.32;;;4.53;;
47894;SDS011;33653;52.302;8.134;2022-10-31T16:17:34;8.85;;;4.15;;
47894;SDS011;33653;52.302;8.134;2022-10-31T16:20:04;8.57;;;4.53;;
47894;SDS011;33653;52.302;8.134;2022-10-31T16:22:34;6.63;;;3.53;;
47894;SDS011;33653;52.302;8.134;2022-10-31T16:25:04;7.95;;;4.53;;
47894;SDS011;33653;52.302;8.134;2022-10-31T16:28:04;9.77;;;3.17;;
47894;SDS011;33653;52.302;8.134;2022-10-31T16:30:42;5.20;;;3.60;;
47894;SDS011;33653;52.302;8.134;2022-10-31T16:39:06;9.20;;;4.95;;
47894;SDS011;33653;52.302;8.134;2022-10-31T16:44:28;7.57;;;3.83;;
47894;SDS011;33653;52.302;8.134;2022-10-31T16:47:09;7.93;;;4.65;;
47894;SDS011;33653;52.302;8.134;2022-10-31T16:49:43;6.60;;;4.72;;
47894;SDS011;33653;52.302;8.134;2022-10-31T16:52:13;6.78;;;3.90;;
47894;SDS011;33653;52.302;8.134;2022-10-31T16:54:44;5.35;;;3.60;;
47894;SDS011;33653;52.302;8.134;2022-10-31T16:57:15;6.53;;;4.47;;
47894;SDS011;33653;52.302;8.134;2022-10-31T16:59:56;9.95;;;4.65;;
47894;SDS011;33653;52.302;8.134;2022-10-31T17:02:24;8.57;;;5.15;;
47894;SDS011;33653;52.302;8.134;2022-10-31T17:04:52;5.85;;;3.67;;
47894;SDS011;33653;52.302;8.134;2022-10-31T17:07:23;7.88;;;4.40;;
47894;SDS011;33653;52.302;8.134;2022-10-31T17:09:50;9.93;;;4.50;;
47894;SDS011;33653;52.302;8.134;2022-10-31T17:12:20;7.40;;;3.83;;
47894;SDS011;33653;52.302;8.134;2022-10-31T17:14:49;9.00;;;4.55;;
47894;SDS011;33653;52.302;8.134;2022-10-31T17:17:18;8.38;;;4.90;;
47894;SDS011;33653;52.302;8.134;2022-10-31T17:19:46;8.27;;;4.60;;
47894;SDS011;33653;52.302;8.134;2022-10-31T17:28:00;8.80;;;4.18;;
47894;SDS011;33653;52.302;8.134;2022-10-31T17:30:28;9.20;;;3.87;;
47894;SDS011;33653;52.302;8.134;2022-10-31T17:32:56;11.70;;;4.80;;
47894;SDS011;33653;52.302;8.134;2022-10-31T17:35:24;9.70;;;5.35;;
47894;SDS011;33653;52.302;8.134;2022-10-31T17:37:52;9.32;;;4.38;;
47894;SDS011;33653;52.302;8.134;2022-10-31T17:40:20;13.63;;;5.20;;
47894;SDS011;33653;52.302;8.134;2022-10-31T17:42:51;8.75;;;4.65;;
47894;SDS011;33653;52.302;8.134;2022-10-31T17:45:22;7.05;;;5.18;;
47894;SDS011;33653;52.302;8.134;2022-10-31T17:47:52;14.13;;;5.63;;
47894;SDS011;33653;52.302;8.134;2022-10-31T17:50:31;10.82;;;5.65;;
47894;SDS011;33653;52.302;8.134;2022-10-31T17:56:00;14.73;;;5.72;;
47894;SDS011;33653;52.302;8.134;2022-10-31T17:58:29;9.48;;;5.20;;
47894;SDS011;33653;52.302;8.134;2022-10-31T18:01:10;9.07;;;5.13;;
47894;SDS011;33653;52.302;8.134;2022-10-31T18:03:39;9.60;;;5.28;;
47894;SDS011;33653;52.302;8.134;2022-10-31T18:06:11;10.93;;;4.90;;
47894;SDS011;33653;52.302;8.134;2022-10-31T18:08:42;9.00;;;4.72;;
47894;SDS011;33653;52.302;8.134;2022-10-31T18:14:22;8.55;;;4.55;;
47894;SDS011;33653;52.302;8.134;2022-10-31T18:19:44;9.57;;;4.85;;
47894;SDS011;33653;52.302;8.134;2022-10-31T18:30:51;10.13;;;4.85;;
47894;SDS011;33653;52.302;8.134;2022-10-31T18:33:19;10.07;;;5.82;;
47894;SDS011;33653;52.302;8.134;2022-10-31T18:35:47;12.73;;;5.25;;
47894;SDS011;33653;52.302;8.134;2022-10-31T18:38:15;10.43;;;5.15;;
47894;SDS011;33653;52.302;8.134;2022-10-31T18:43:36;9.50;;;5.25;;
47894;SDS011;33653;52.302;8.134;2022-10-31T18:48:57;13.40;;;6.10;;
47894;SDS011;33653;52.302;8.134;2022-10-31T18:51:26;9.68;;;5.30;;
47894;SDS011;33653;52.302;8.134;2022-10-31T18:53:55;9.23;;;5.07;;
47894;SDS011;33653;52.302;8.134;2022-10-31T19:07:34;11.38;;;6.25;;
47894;SDS011;33653;52.302;8.134;2022-10-31T19:12:39;10.32;;;5.88;;
47894;SDS011;33653;52.302;8.134;2022-10-31T19:15:07;10.07;;;5.50;;
47894;SDS011;33653;52.302;8.134;2022-10-31T19:17:38;14.50;;;6.10;;
47894;SDS011;33653;52.302;8.134;2022-10-31T19:26:27;15.18;;;5.70;;
47894;SDS011;33653;52.302;8.134;2022-10-31T19:29:07;11.23;;;6.43;;
47894;SDS011;33653;52.302;8.134;2022-10-31T19:31:36;15.25;;;6.68;;
47894;SDS011;33653;52.302;8.134;2022-10-31T19:37:04;13.65;;;6.43;;
47894;SDS011;33653;52.302;8.134;2022-10-31T19:39:38;13.73;;;7.20;;
47894;SDS011;33653;52.302;8.134;2022-10-31T19:42:11;12.82;;;7.20;;
47894;SDS011;33653;52.302;8.134;2022-10-31T19:44:39;10.85;;;7.65;;
47894;SDS011;33653;52.302;8.134;2022-10-31T19:47:08;13.07;;;7.07;;
47894;SDS011;33653;52.302;8.134;2022-10-31T19:49:36;12.93;;;7.15;;
47894;SDS011;33653;52.302;8.134;2022-10-31T19:52:07;11.20;;;6.68;;
47894;SDS011;33653;52.302;8.134;2022-10-31T19:54:35;16.05;;;7.30;;
47894;SDS011;33653;52.302;8.134;2022-10-31T19:57:05;13.27;;;6.82;;
47894;SDS011;33653;52.302;8.134;2022-10-31T19:59:38;23.92;;;7.85;;
47894;SDS011;33653;52.302;8.134;2022-10-31T20:02:07;12.15;;;7.45;;
47894;SDS011;33653;52.302;8.134;2022-10-31T20:04:42;10.75;;;6.20;;
47894;SDS011;33653;52.302;8.134;2022-10-31T20:07:13;17.23;;;8.13;;
47894;SDS011;33653;52.302;8.134;2022-10-31T20:12:44;13.90;;;6.85;;
47894;SDS011;33653;52.302;8.134;2022-10-31T20:15:16;9.30;;;6.28;;
47894;SDS011;33653;52.302;8.134;2022-10-31T20:17:44;11.73;;;6.88;;
47894;SDS011;33653;52.302;8.134;2022-10-31T20:20:21;21.23;;;8.13;;
47894;SDS011;33653;52.302;8.134;2022-10-31T20:22:49;14.10;;;7.60;;
47894;SDS011;33653;52.302;8.134;2022-10-31T20:25:22;14.90;;;7.47;;
47894;SDS011;33653;52.302;8.134;2022-10-31T20:27:55;14.75;;;6.85;;
47894;SDS011;33653;52.302;8.134;2022-10-31T20:30:27;11.23;;;7.38;;
47894;SDS011;33653;52.302;8.134;2022-10-31T20:32:55;12.43;;;6.22;;
47894;SDS011;33653;52.302;8.134;2022-10-31T20:35:23;14.40;;;8.18;;
47894;SDS011;33653;52.302;8.134;2022-10-31T20:38:08;13.90;;;6.57;;
47894;SDS011;33653;52.302;8.134;2022-10-31T20:40:38;17.98;;;7.13;;
47894;SDS011;33653;52.302;8.134;2022-10-31T20:43:14;14.60;;;6.72;;
47894;SDS011;33653;52.302;8.134;2022-10-31T20:45:45;22.48;;;8.30;;
47894;SDS011;33653;52.302;8.134;2022-10-31T20:48:13;13.87;;;7.13;;
47894;SDS011;33653;52.302;8.134;2022-10-31T20:50:46;13.77;;;7.05;;
47894;SDS011;33653;52.302;8.134;2022-10-31T20:53:17;15.38;;;6.80;;
47894;SDS011;33653;52.302;8.134;2022-10-31T20:55:45;18.02;;;6.63;;
47894;SDS011;33653;52.302;8.134;2022-10-31T20:58:13;13.05;;;7.43;;
47894;SDS011;33653;52.302;8.134;2022-10-31T21:00:45;19.35;;;8.23;;
47894;SDS011;33653;52.302;8.134;2022-10-31T21:03:13;15.50;;;6.65;;
47894;SDS011;33653;52.302;8.134;2022-10-31T21:05:41;13.75;;;7.43;;
47894;SDS011;33653;52.302;8.134;2022-10-31T21:08:09;14.95;;;7.07;;
47894;SDS011;33653;52.302;8.134;2022-10-31T21:10:37;18.52;;;7.95;;
47894;SDS011;33653;52.302;8.134;2022-10-31T21:13:06;15.07;;;7.32;;
47894;SDS011;33653;52.302;8.134;2022-10-31T21:15:34;12.85;;;6.97;;
47894;SDS011;33653;52.302;8.134;2022-10-31T21:20:58;15.15;;;7.60;;
47894;SDS011;33653;52.302;8.134;2022-10-31T21:23:26;12.90;;;7.07;;
47894;SDS011;33653;52.302;8.134;2022-10-31T21:25:55;10.13;;;6.03;;
47894;SDS011;33653;52.302;8.134;2022-10-31T21:28:22;13.57;;;6.80;;
47894;SDS011;33653;52.302;8.134;2022-10-31T21:30:57;18.05;;;7.47;;
47894;SDS011;33653;52.302;8.134;2022-10-31T21:33:25;18.88;;;7.90;;
47894;SDS011;33653;52.302;8.134;2022-10-31T21:35:53;20.23;;;7.97;;
47894;SDS011;33653;52.302;8.134;2022-10-31T21:38:26;15.00;;;7.88;;
47894;SDS011;33653;52.302;8.134;2022-10-31T21:41:01;14.00;;;6.78;;
47894;SDS011;33653;52.302;8.134;2022-10-31T21:43:39;12.55;;;6.90;;
47894;SDS011;33653;52.302;8.134;2022-10-31T21:46:14;18.88;;;8.30;;
47894;SDS011;33653;52.302;8.134;2022-10-31T21:48:48;15.27;;;7.55;;
47894;SDS011;33653;52.302;8.134;2022-10-31T21:51:29;15.45;;;7.57;;
47894;SDS011;33653;52.302;8.134;2022-10-31T21:53:59;12.35;;;6.68;;
47894;SDS011;33653;52.302;8.134;2022-10-31T21:56:52;14.52;;;7.15;;
47894;SDS011;33653;52.302;8.134;2022-10-31T21:59:20;18.40;;;7.32;;
47894;SDS011;33653;52.302;8.134;2022-10-31T22:01:49;12.50;;;7.22;;
47894;SDS011;33653;52.302;8.134;2022-10-31T22:04:17;21.10;;;7.32;;
47894;SDS011;33653;52.302;8.134;2022-10-31T22:06:46;13.70;;;7.15;;
47894;SDS011;33653;52.302;8.134;2022-10-31T22:09:14;12.18;;;6.55;;
47894;SDS011;33653;52.302;8.134;2022-10-31T22:11:43;16.65;;;8.55;;
47894;SDS011;33653;52.302;8.134;2022-10-31T22:14:11;13.90;;;7.47;;
47894;SDS011;33653;52.302;8.134;2022-10-31T22:16:40;18.80;;;7.43;;
47894;SDS011;33653;52.302;8.134;2022-10-31T22:19:27;15.00;;;6.93;;
47894;SDS011;33653;52.302;8.134;2022-10-31T22:21:55;16.35;;;6.78;;
47894;SDS011;33653;52.302;8.134;2022-10-31T22:24:23;10.30;;;6.72;;
47894;SDS011;33653;52.302;8.134;2022-10-31T22:26:50;19.10;;;6.85;;
47894;SDS011;33653;52.302;8.134;2022-10-31T22:29:18;16.40;;;7.72;;
47894;SDS011;33653;52.302;8.134;2022-10-31T22:31:48;10.88;;;6.28;;
47894;SDS011;33653;52.302;8.134;2022-10-31T22:34:24;15.73;;;7.18;;
47894;SDS011;33653;52.302;8.134;2022-10-31T22:36:54;13.32;;;6.15;;
47894;SDS011;33653;52.302;8.134;2022-10-31T22:39:22;15.32;;;7.82;;
47894;SDS011;33653;52.302;8.134;2022-10-31T22:41:50;16.38;;;7.22;;
47894;SDS011;33653;52.302;8.134;2022-10-31T22:46:54;13.20;;;7.15;;
47894;SDS011;33653;52.302;8.134;2022-10-31T22:49:22;11.73;;;6.55;;
47894;SDS011;33653;52.302;8.134;2022-10-31T22:51:50;12.65;;;6.28;;
47894;SDS011;33653;52.302;8.134;2022-10-31T22:54:18;16.05;;;6.25;;
47894;SDS011;33653;52.302;8.134;2022-10-31T22:56:45;13.32;;;5.93;;
47894;SDS011;33653;52.302;8.134;2022-10-31T22:59:14;15.23;;;6.05;;
47894;SDS011;33653;52.302;8.134;2022-10-31T23:01:56;12.10;;;6.03;;
47894;SDS011;33653;52.302;8.134;2022-10-31T23:04:24;13.10;;;6.72;;
47894;SDS011;33653;52.302;8.134;2022-10-31T23:06:51;9.68;;;6.35;;
47894;SDS011;33653;52.302;8.134;2022-10-31T23:09:19;10.98;;;6.78;;
47894;SDS011;33653;52.302;8.134;2022-10-31T23:11:47;12.57;;;6.53;;
47894;SDS011;33653;52.302;8.134;2022-10-31T23:14:16;10.77;;;5.80;;
47894;SDS011;33653;52.302;8.134;2022-10-31T23:19:36;14.68;;;6.97;;
47894;SDS011;33653;52.302;8.134;2022-10-31T23:22:05;10.93;;;6.15;;
47894;SDS011;33653;52.302;8.134;2022-10-31T23:24:37;17.83;;;6.72;;
47894;SDS011;33653;52.302;8.134;2022-10-31T23:27:10;7.72;;;5.70;;
47894;SDS011;33653;52.302;8.134;2022-10-31T23:29:47;10.63;;;5.10;;
47894;SDS011;33653;52.302;8.134;2022-10-31T23:35:16;12.10;;;6.38;;
47894;SDS011;33653;52.302;8.134;2022-10-31T23:37:44;14.35;;;5.88;;
47894;SDS011;33653;52.302;8.134;2022-10-31T23:40:11;11.90;;;6.40;;
47894;SDS011;33653;52.302;8.134;2022-10-31T23:42:39;16.13;;;5.95;;
47894;SDS011;33653;52.302;8.134;2022-10-31T23:48:00;9.15;;;5.18;;
47894;SDS011;33653;52.302;8.134;2022-10-31T23:50:29;7.38;;;4.55;;
47894;SDS011;33653;52.302;8.134;2022-10-31T23:52:56;7.97;;;5.05;;
47894;SDS011;33653;52.302;8.134;2022-10-31T23:55:24;8.45;;;5.63;;
47894;SDS011;33653;52.302;8.134;2022-10-31T23:57:52;8.82;;;5.72;;
